Time;durP1;ratioP1;P1;durP2;ratioP2;P2;SDS_P1;SDS_P2;PMS_P1;PMS_P2;Temp;Humidity;BMP_temperature;BMP_pressure;BME280_temperature;BME280_humidity;BME280_pressure;Samples;Min_cycle;Max_cycle;Signal;HPM_P1;HPM_P2
2022/05/01 00:00:41;;;;;;;6.07;5.17;;;14.00;99.90;;;;;;5069316;28;20527;-62
2022/05/01 00:03:08;;;;;;;7.13;5.63;;;14.00;99.90;;;;;;5069218;28;20449;-62
2022/05/01 00:05:35;;;;;;;7.27;5.27;;;14.00;99.90;;;;;;5069395;28;20456;-62
2022/05/01 00:08:04;;;;;;;8.80;6.40;;;14.00;99.90;;;;;;5069285;28;20489;-62
2022/05/01 00:10:31;;;;;;;8.53;6.37;;;14.00;99.90;;;;;;5069348;28;20840;-62
2022/05/01 00:12:59;;;;;;;7.60;5.63;;;14.00;99.90;;;;;;5069068;28;20464;-62
2022/05/01 00:15:27;;;;;;;7.10;5.20;;;14.00;99.90;;;;;;5069203;28;20456;-62
2022/05/01 00:17:54;;;;;;;8.30;6.13;;;14.10;99.90;;;;;;5069150;28;20968;-62
2022/05/01 00:20:22;;;;;;;8.53;5.40;;;14.10;99.90;;;;;;5072732;28;20456;-62
2022/05/01 00:22:49;;;;;;;7.23;5.63;;;13.90;99.90;;;;;;5073555;28;20973;-62
2022/05/01 00:25:16;;;;;;;8.43;6.50;;;13.90;99.90;;;;;;5073346;28;20441;-63
2022/05/01 00:27:43;;;;;;;8.30;7.07;;;13.80;99.90;;;;;;5072764;28;20497;-62
2022/05/01 00:30:13;;;;;;;7.40;6.20;;;13.80;99.90;;;;;;5073039;28;20467;-63
2022/05/01 00:38:24;;;;;;;8.10;5.60;;;13.80;99.90;;;;;;5030112;28;20489;-63
2022/05/01 00:40:52;;;;;;;11.27;8.17;;;13.80;99.90;;;;;;5054286;28;20453;-62
2022/05/01 00:43:19;;;;;;;9.40;7.07;;;13.50;99.90;;;;;;5072910;28;20444;-61
2022/05/01 00:45:47;;;;;;;11.30;7.90;;;13.50;99.90;;;;;;5072836;28;20444;-63
2022/05/01 00:48:15;;;;;;;7.93;7.10;;;13.40;99.90;;;;;;5072779;28;21004;-63
2022/05/01 00:50:43;;;;;;;10.80;8.20;;;13.50;99.90;;;;;;5072495;28;20484;-63
2022/05/01 00:53:11;;;;;;;10.33;7.73;;;13.40;99.90;;;;;;5072743;28;20457;-62
2022/05/01 00:55:39;;;;;;;11.27;8.83;;;13.40;99.90;;;;;;5072669;28;20510;-62
2022/05/01 00:58:07;;;;;;;11.53;8.23;;;13.50;99.90;;;;;;5072343;28;20934;-62
2022/05/01 01:00:34;;;;;;;11.37;8.10;;;13.50;99.90;;;;;;5072062;28;20941;-62
2022/05/01 01:03:03;;;;;;;12.03;8.60;;;13.50;99.90;;;;;;5072087;28;20469;-62
2022/05/01 01:05:30;;;;;;;10.03;8.10;;;13.50;99.90;;;;;;5072252;28;20453;-62
2022/05/01 01:08:00;;;;;;;13.43;9.07;;;13.50;99.90;;;;;;5072131;28;20496;-62
2022/05/01 01:10:28;;;;;;;10.10;8.50;;;13.50;99.90;;;;;;5072303;28;20499;-61
2022/05/01 01:12:55;;;;;;;12.87;9.57;;;13.50;99.90;;;;;;5072372;28;20519;-62
2022/05/01 01:15:23;;;;;;;13.90;9.50;;;13.50;99.90;;;;;;5072294;28;20445;-62
2022/05/01 01:17:54;;;;;;;13.87;10.23;;;13.50;99.90;;;;;;5071902;28;20476;-62
2022/05/01 01:20:24;;;;;;;13.90;9.97;;;13.50;99.90;;;;;;5071876;28;20989;-62
2022/05/01 01:22:54;;;;;;;12.70;9.63;;;13.40;99.90;;;;;;5072171;28;20924;-63
2022/05/01 01:25:23;;;;;;;10.73;9.13;;;13.30;99.90;;;;;;5072179;28;20835;-63
2022/05/01 01:27:50;;;;;;;11.30;9.67;;;13.40;99.90;;;;;;5071798;28;21001;-63
2022/05/01 01:33:03;;;;;;;13.20;8.57;;;13.30;99.90;;;;;;5071876;28;20425;-63
2022/05/01 01:35:33;;;;;;;10.53;8.87;;;13.30;99.90;;;;;;5071808;28;20547;-63
2022/05/01 01:38:02;;;;;;;11.50;9.57;;;13.30;99.90;;;;;;5071867;28;20834;-63
2022/05/01 01:40:31;;;;;;;9.87;8.20;;;13.30;99.90;;;;;;5071668;28;20461;-63
2022/05/01 01:42:59;;;;;;;11.30;8.80;;;13.20;99.90;;;;;;5071455;28;20863;-63
2022/05/01 01:45:28;;;;;;;13.87;8.10;;;13.10;99.90;;;;;;5071612;28;20453;-63
2022/05/01 01:47:57;;;;;;;11.37;8.63;;;13.10;99.90;;;;;;5071062;28;20604;-63
2022/05/01 01:50:25;;;;;;;12.20;9.57;;;13.20;99.90;;;;;;5071009;28;20492;-61
2022/05/01 01:52:52;;;;;;;9.60;8.60;;;13.20;99.90;;;;;;5071719;28;20460;-63
2022/05/01 01:55:21;;;;;;;10.60;8.97;;;13.10;99.90;;;;;;5071150;28;20448;-62
2022/05/01 01:57:48;;;;;;;9.27;8.33;;;13.10;99.90;;;;;;5071202;28;20556;-63
2022/05/01 02:00:15;;;;;;;13.67;10.30;;;13.10;99.90;;;;;;5071342;28;20460;-63
2022/05/01 02:02:43;;;;;;;12.87;11.10;;;13.00;99.90;;;;;;5071423;28;20936;-63
2022/05/01 02:05:10;;;;;;;12.30;9.23;;;12.90;99.90;;;;;;5071587;28;20471;-63
2022/05/01 02:07:37;;;;;;;11.30;10.10;;;12.90;99.90;;;;;;5071027;28;20489;-62
2022/05/01 02:10:05;;;;;;;12.07;10.57;;;12.90;99.90;;;;;;5070956;28;20457;-63
2022/05/01 02:12:34;;;;;;;11.50;10.17;;;12.80;99.90;;;;;;5071117;28;20453;-62
2022/05/01 02:15:01;;;;;;;11.30;10.10;;;12.80;99.90;;;;;;5071222;28;20795;-62
2022/05/01 02:17:28;;;;;;;12.93;11.27;;;12.70;99.90;;;;;;5070927;28;20925;-61
2022/05/01 02:19:55;;;;;;;11.50;10.30;;;12.70;99.90;;;;;;5071103;28;20468;-62
2022/05/01 02:22:22;;;;;;;14.70;11.27;;;12.70;99.90;;;;;;5070724;28;20437;-62
2022/05/01 02:24:50;;;;;;;14.00;11.23;;;12.60;99.90;;;;;;5070978;28;20449;-62
2022/05/01 02:27:17;;;;;;;14.20;12.07;;;12.60;99.90;;;;;;5070607;28;20538;-61
2022/05/01 02:29:46;;;;;;;13.27;11.90;;;12.60;99.90;;;;;;5070760;28;20487;-62
2022/05/01 02:32:13;;;;;;;12.37;10.97;;;12.60;99.90;;;;;;5070667;28;20456;-63
2022/05/01 02:34:40;;;;;;;13.63;11.80;;;12.60;99.90;;;;;;5070530;28;20457;-62
2022/05/01 02:37:08;;;;;;;13.27;11.80;;;12.70;99.90;;;;;;5070502;28;20832;-62
2022/05/01 02:39:35;;;;;;;13.30;10.40;;;12.70;99.90;;;;;;5070473;28;20894;-62
2022/05/01 02:42:02;;;;;;;18.13;11.50;;;12.60;99.90;;;;;;5069617;28;20453;-62
2022/05/01 02:44:30;;;;;;;13.40;11.60;;;12.60;99.90;;;;;;5070047;28;20448;-62
2022/05/01 02:46:58;;;;;;;15.37;11.80;;;12.70;99.90;;;;;;5070250;28;20480;-62
2022/05/01 02:49:26;;;;;;;14.67;11.93;;;12.70;99.90;;;;;;5070401;28;20456;-62
2022/05/01 02:51:53;;;;;;;17.03;12.43;;;12.70;99.90;;;;;;5069817;28;20488;-62
2022/05/01 02:54:22;;;;;;;15.20;12.10;;;12.70;99.90;;;;;;5070242;28;20449;-62
2022/05/01 02:56:50;;;;;;;16.57;13.73;;;12.70;99.90;;;;;;5070343;28;20501;-62
2022/05/01 02:59:17;;;;;;;15.83;13.83;;;12.70;99.90;;;;;;5070321;28;20460;-61
2022/05/01 03:01:45;;;;;;;15.67;12.73;;;12.70;99.90;;;;;;5070175;28;20480;-62
2022/05/01 03:04:13;;;;;;;15.13;12.73;;;12.70;99.90;;;;;;5070211;28;20485;-62
2022/05/01 03:06:40;;;;;;;14.50;11.37;;;12.70;99.90;;;;;;5070090;28;20507;-61
2022/05/01 03:09:09;;;;;;;18.33;13.73;;;12.70;99.90;;;;;;5069964;28;20493;-63
2022/05/01 03:11:36;;;;;;;18.23;12.53;;;12.70;99.90;;;;;;5070182;28;20502;-62
2022/05/01 03:14:04;;;;;;;15.00;12.60;;;12.80;99.90;;;;;;5070108;28;20564;-63
2022/05/01 03:16:31;;;;;;;14.30;12.50;;;12.70;99.90;;;;;;5069932;28;20806;-62
2022/05/01 03:24:28;;;;;;;18.50;15.13;;;12.40;99.90;;;;;;5070034;28;20436;-63
2022/05/01 03:26:55;;;;;;;20.13;14.33;;;12.40;99.90;;;;;;5069480;28;20476;-62
2022/05/01 03:29:23;;;;;;;14.73;13.23;;;12.40;99.90;;;;;;5069524;28;20449;-63
2022/05/01 03:31:50;;;;;;;16.03;14.20;;;12.50;99.90;;;;;;5069722;28;20503;-62
2022/05/01 03:34:17;;;;;;;15.80;14.10;;;12.50;99.90;;;;;;5069673;28;20444;-63
2022/05/01 03:36:47;;;;;;;17.03;14.93;;;12.60;99.90;;;;;;5069719;28;20465;-62
2022/05/01 03:39:15;;;;;;;15.40;13.60;;;12.70;99.90;;;;;;5069638;28;20921;-62
2022/05/01 03:41:42;;;;;;;17.67;13.47;;;12.80;99.90;;;;;;5069603;28;20445;-62
2022/05/01 03:44:09;;;;;;;22.70;16.53;;;12.80;99.90;;;;;;5069535;28;20468;-63
2022/05/01 03:46:38;;;;;;;18.90;15.30;;;12.70;99.90;;;;;;5069130;28;20445;-61
2022/05/01 03:49:06;;;;;;;17.20;14.50;;;12.80;99.90;;;;;;5069523;28;20538;-64
2022/05/01 03:51:33;;;;;;;20.23;14.80;;;12.80;99.90;;;;;;5068952;28;20497;-63
2022/05/01 03:54:03;;;;;;;15.97;14.27;;;12.80;99.90;;;;;;5069211;28;20459;-63
2022/05/01 03:56:30;;;;;;;15.70;13.93;;;12.90;99.90;;;;;;5069454;28;20613;-62
2022/05/01 03:58:57;;;;;;;17.70;14.50;;;12.90;99.90;;;;;;5069353;28;20472;-61
2022/05/01 04:01:25;;;;;;;18.10;15.10;;;12.90;99.90;;;;;;5069525;28;20535;-62
2022/05/01 04:03:52;;;;;;;16.63;15.00;;;12.90;99.90;;;;;;5069604;28;20456;-63
2022/05/01 04:06:19;;;;;;;17.00;15.30;;;12.80;99.90;;;;;;5069519;28;20804;-63
2022/05/01 04:08:47;;;;;;;16.40;14.70;;;12.80;99.90;;;;;;5068939;28;20538;-63
2022/05/01 04:11:15;;;;;;;16.30;14.60;;;12.90;99.90;;;;;;5069198;28;20444;-63
2022/05/01 04:13:43;;;;;;;16.53;14.43;;;12.90;99.90;;;;;;5069070;28;20480;-63
2022/05/01 04:16:10;;;;;;;18.07;14.80;;;12.90;99.90;;;;;;5069342;28;20822;-63
2022/05/01 04:18:37;;;;;;;15.90;14.20;;;12.80;99.90;;;;;;5069192;28;20472;-64
2022/05/01 04:21:04;;;;;;;17.23;14.53;;;12.90;99.90;;;;;;5069225;28;20456;-64
2022/05/01 04:23:32;;;;;;;18.10;14.60;;;13.00;99.90;;;;;;5069347;28;20814;-63
2022/05/01 04:25:59;;;;;;;16.57;14.87;;;13.00;99.90;;;;;;5069218;28;20456;-63
2022/05/01 04:28:27;;;;;;;15.23;13.40;;;13.10;99.90;;;;;;5069103;28;20485;-63
2022/05/01 04:30:55;;;;;;;16.37;14.67;;;13.20;99.90;;;;;;5069212;28;20929;-63
2022/05/01 04:33:22;;;;;;;16.33;14.50;;;13.20;99.90;;;;;;5068639;28;20461;-72
2022/05/01 04:35:51;;;;;;;15.03;12.90;;;13.30;99.90;;;;;;5068726;28;20472;-66
2022/05/01 04:38:20;;;;;;;15.43;13.87;;;13.40;99.90;;;;;;5068799;28;20523;-73
2022/05/01 04:40:48;;;;;;;16.03;14.17;;;13.40;99.90;;;;;;5069213;28;20461;-63
2022/05/01 04:43:18;;;;;;;18.53;14.10;;;13.50;99.90;;;;;;5069088;28;20841;-66
2022/05/01 04:45:48;;;;;;;17.20;13.73;;;13.60;99.90;;;;;;5069124;28;21083;-63
2022/05/01 04:48:17;;;;;;;14.67;13.17;;;13.70;99.90;;;;;;5068823;28;20489;-67
2022/05/01 04:50:45;;;;;;;16.37;14.67;;;13.70;99.90;;;;;;5068599;28;20599;-74
2022/05/01 04:53:13;;;;;;;18.23;15.80;;;13.70;99.90;;;;;;5068798;28;20452;-73
2022/05/01 04:55:42;;;;;;;18.20;15.67;;;13.80;99.90;;;;;;5068983;28;20464;-74
2022/05/01 04:58:10;;;;;;;16.10;14.33;;;13.90;99.90;;;;;;5068761;28;20473;-73
2022/05/01 05:00:37;;;;;;;15.03;11.40;;;14.00;99.90;;;;;;5068479;28;20453;-73
2022/05/01 05:03:06;;;;;;;15.60;14.00;;;14.10;99.90;;;;;;5068778;28;20445;-73
2022/05/01 05:05:34;;;;;;;15.50;13.50;;;14.20;99.90;;;;;;5068809;28;20817;-73
2022/05/01 05:10:45;;;;;;;15.50;12.80;;;14.40;99.90;;;;;;5072315;28;20864;-73
2022/05/01 05:13:13;;;;;;;15.17;13.00;;;14.40;99.90;;;;;;5072358;28;20503;-74
2022/05/01 05:15:40;;;;;;;19.10;13.27;;;14.50;99.90;;;;;;5072525;28;20456;-69
2022/05/01 05:18:09;;;;;;;13.97;12.17;;;14.50;99.90;;;;;;5072129;28;20475;-70
2022/05/01 05:20:36;;;;;;;14.10;12.60;;;14.40;99.90;;;;;;5072197;28;20452;-72
2022/05/01 05:23:03;;;;;;;13.33;12.00;;;14.50;99.90;;;;;;5072099;28;20453;-74
2022/05/01 05:25:30;;;;;;;13.70;12.00;;;14.50;99.90;;;;;;5072013;28;20845;-73
2022/05/01 05:27:57;;;;;;;13.70;12.20;;;14.40;99.90;;;;;;5071896;28;20822;-71
2022/05/01 05:30:24;;;;;;;12.90;11.60;;;14.50;99.90;;;;;;5071805;28;20452;-72
2022/05/01 05:32:51;;;;;;;14.53;11.97;;;14.60;99.90;;;;;;5071980;28;20460;-71
2022/05/01 05:35:20;;;;;;;14.57;11.50;;;14.70;99.90;;;;;;5071700;28;20504;-73
2022/05/01 05:37:47;;;;;;;15.30;12.50;;;14.80;99.90;;;;;;5071735;28;20978;-72
2022/05/01 05:40:14;;;;;;;14.03;12.50;;;15.00;99.90;;;;;;5071468;28;20445;-70
2022/05/01 05:42:41;;;;;;;14.30;12.50;;;15.00;99.90;;;;;;5071536;28;20461;-70
2022/05/01 05:45:10;;;;;;;15.03;13.30;;;15.00;99.90;;;;;;5071713;28;20449;-75
2022/05/01 05:47:37;;;;;;;15.80;14.13;;;15.10;99.90;;;;;;5071721;28;20462;-62
2022/05/01 05:50:05;;;;;;;13.77;11.87;;;15.20;99.90;;;;;;5071512;28;20833;-63
2022/05/01 05:52:34;;;;;;;13.93;12.53;;;15.40;99.90;;;;;;5071629;28;20449;-62
2022/05/01 05:55:02;;;;;;;12.60;11.30;;;15.60;99.90;;;;;;5071464;28;20448;-63
2022/05/01 05:57:29;;;;;;;13.30;12.00;;;15.70;99.90;;;;;;5071291;28;20494;-72
2022/05/01 05:59:56;;;;;;;14.07;10.90;;;15.70;99.90;;;;;;5071333;28;20830;-65
2022/05/01 06:02:23;;;;;;;13.17;11.47;;;15.80;99.90;;;;;;5071225;28;20460;-69
2022/05/01 06:04:50;;;;;;;12.20;10.70;;;15.70;99.90;;;;;;5071172;28;20452;-71
2022/05/01 06:07:17;;;;;;;13.87;12.03;;;15.70;99.90;;;;;;5071346;28;20449;-71
2022/05/01 06:09:46;;;;;;;11.77;10.23;;;15.80;99.90;;;;;;5070960;28;20592;-68
2022/05/01 06:12:13;;;;;;;12.17;10.57;;;15.80;99.90;;;;;;5071151;28;20461;-70
2022/05/01 06:14:40;;;;;;;12.10;10.43;;;15.90;99.90;;;;;;5071083;28;20456;-69
2022/05/01 06:17:08;;;;;;;12.13;10.73;;;16.00;99.90;;;;;;5071051;28;20496;-70
2022/05/01 06:19:35;;;;;;;11.60;10.30;;;16.10;99.90;;;;;;5071159;28;20552;-69
2022/05/01 06:22:02;;;;;;;11.40;10.13;;;16.30;99.90;;;;;;5070775;28;20518;-69
2022/05/01 06:24:29;;;;;;;19.40;11.37;;;16.20;99.90;;;;;;5070760;28;20518;-72
2022/05/01 06:26:59;;;;;;;12.83;10.10;;;16.30;99.90;;;;;;5070902;28;20574;-70
2022/05/01 06:29:26;;;;;;;11.67;10.47;;;16.40;99.90;;;;;;5070613;28;20844;-70
2022/05/01 06:31:54;;;;;;;12.27;10.07;;;16.60;99.90;;;;;;5070953;28;20453;-72
2022/05/01 06:34:21;;;;;;;12.50;8.90;;;16.80;99.90;;;;;;5070975;28;20491;-71
2022/05/01 06:36:48;;;;;;;12.33;9.70;;;17.00;99.90;;;;;;5070703;28;20449;-72
2022/05/01 06:39:15;;;;;;;11.93;9.90;;;17.10;99.90;;;;;;5070298;28;20830;-72
2022/05/01 06:41:42;;;;;;;11.47;9.80;;;17.10;99.90;;;;;;5070632;28;20445;-69
2022/05/01 06:44:11;;;;;;;12.10;9.80;;;17.00;99.90;;;;;;5070594;28;20449;-70
2022/05/01 06:46:38;;;;;;;16.37;10.77;;;17.00;99.90;;;;;;5070268;28;20453;-71
2022/05/01 06:49:05;;;;;;;11.47;10.27;;;17.00;99.90;;;;;;5070293;28;20500;-68
2022/05/01 06:51:32;;;;;;;10.30;9.30;;;17.00;99.90;;;;;;5070101;28;20492;-70
2022/05/01 06:54:00;;;;;;;13.57;9.03;;;17.00;99.90;;;;;;5070369;28;20452;-71
2022/05/01 06:56:27;;;;;;;11.43;10.23;;;17.30;99.90;;;;;;5070393;28;20445;-69
2022/05/01 06:58:54;;;;;;;11.70;9.37;;;17.50;99.90;;;;;;5070213;28;20989;-68
2022/05/01 07:01:22;;;;;;;11.07;9.87;;;17.40;99.90;;;;;;5070348;28;20460;-69
2022/05/01 07:03:49;;;;;;;11.43;10.33;;;17.40;99.90;;;;;;5070168;28;20515;-68
2022/05/01 07:06:17;;;;;;;9.83;8.53;;;17.60;99.90;;;;;;5070095;28;20459;-70
2022/05/01 07:08:44;;;;;;;10.00;8.40;;;17.70;99.90;;;;;;5069848;28;20977;-70
2022/05/01 07:11:11;;;;;;;10.70;9.33;;;17.90;99.90;;;;;;5069843;28;20456;-71
2022/05/01 07:13:40;;;;;;;13.37;10.40;;;17.80;99.90;;;;;;5070036;28;20799;-70
2022/05/01 07:16:07;;;;;;;10.77;8.60;;;18.00;99.90;;;;;;5068301;28;20887;-70
2022/05/01 07:18:36;;;;;;;12.47;8.80;;;18.30;99.90;;;;;;5069381;28;20472;-70
2022/05/01 07:21:03;;;;;;;11.23;7.90;;;18.40;99.90;;;;;;5069696;28;20901;-68
2022/05/01 07:23:30;;;;;;;10.77;7.87;;;18.60;99.90;;;;;;5069868;28;20483;-72
2022/05/01 07:25:58;;;;;;;10.57;8.27;;;18.60;99.90;;;;;;5069937;28;20898;-69
2022/05/01 07:28:25;;;;;;;9.17;8.23;;;18.90;99.90;;;;;;5069152;28;20473;-71
2022/05/01 07:30:52;;;;;;;8.73;6.93;;;19.00;99.90;;;;;;5069657;28;20460;-68
2022/05/01 07:33:19;;;;;;;7.30;6.50;;;19.10;99.90;;;;;;5069504;28;20957;-71
2022/05/01 07:35:48;;;;;;;7.77;6.83;;;19.20;99.90;;;;;;5069331;28;20921;-68
2022/05/01 07:38:15;;;;;;;9.33;8.37;;;19.20;99.90;;;;;;5069493;28;20499;-70
2022/05/01 07:40:42;;;;;;;8.57;7.67;;;19.30;99.90;;;;;;5069658;28;20808;-69
2022/05/01 07:43:09;;;;;;;8.10;7.10;;;19.60;99.90;;;;;;5069635;28;20554;-70
2022/05/01 07:45:37;;;;;;;8.23;7.33;;;19.60;99.90;;;;;;5069381;28;20457;-70
2022/05/01 07:48:04;;;;;;;9.60;7.00;;;19.60;99.90;;;;;;5069532;28;20472;-63
2022/05/01 07:50:31;;;;;;;8.73;6.97;;;19.70;99.90;;;;;;5068861;28;20519;-63
2022/05/01 07:53:00;;;;;;;8.40;7.30;;;19.50;99.90;;;;;;5069378;28;20449;-64
2022/05/01 07:55:27;;;;;;;8.00;6.83;;;19.40;99.90;;;;;;5069612;28;20453;-63
2022/05/01 07:57:54;;;;;;;9.30;6.27;;;19.50;99.90;;;;;;5069027;28;20452;-63
2022/05/01 08:00:21;;;;;;;9.23;7.03;;;19.70;99.90;;;;;;5069123;28;20472;-64
2022/05/01 08:05:32;;;;;;;8.33;6.93;;;19.50;99.90;;;;;;5069576;28;20797;-64
2022/05/01 08:08:01;;;;;;;7.97;7.07;;;19.40;99.90;;;;;;5069362;28;20476;-64
2022/05/01 08:10:28;;;;;;;8.70;5.87;;;19.50;99.90;;;;;;5068948;28;20488;-64
2022/05/01 08:12:58;;;;;;;7.80;7.00;;;19.30;99.90;;;;;;5069285;28;20449;-64
2022/05/01 08:15:25;;;;;;;7.47;6.23;;;19.30;99.90;;;;;;5069206;28;20471;-64
2022/05/01 08:21:04;;;;;;;7.30;5.97;;;19.60;99.90;;;;;;5069196;28;20464;-64
2022/05/01 08:23:30;;;;;;;6.90;6.10;;;19.60;98.20;;;;;;5069083;28;20936;-64
2022/05/01 08:26:03;;;;;;;6.63;5.63;;;19.90;97.70;;;;;;5068953;28;20539;-64
2022/05/01 08:28:30;;;;;;;6.60;5.63;;;20.20;96.70;;;;;;5069039;28;20523;-63
2022/05/01 08:30:58;;;;;;;6.17;4.43;;;20.30;95.70;;;;;;5068851;28;20538;-63
2022/05/01 08:33:25;;;;;;;6.77;4.83;;;20.60;93.70;;;;;;5068582;28;20453;-63
2022/05/01 08:35:52;;;;;;;5.90;4.20;;;20.90;93.30;;;;;;5069072;28;20465;-64
2022/05/01 08:38:20;;;;;;;5.97;4.13;;;21.00;92.00;;;;;;5068772;28;21000;-64
2022/05/01 08:40:50;;;;;;;6.33;4.67;;;21.00;89.80;;;;;;5069603;28;20480;-65
2022/05/01 08:43:19;;;;;;;8.33;4.40;;;21.00;90.50;;;;;;5072890;28;20460;-64
2022/05/01 08:45:55;;;;;;;5.13;3.43;;;21.30;90.40;;;;;;5072857;28;20448;-63
2022/05/01 08:48:31;;;;;;;5.63;4.67;;;21.30;82.60;;;;;;5072562;28;20900;-64
2022/05/01 08:50:59;;;;;;;7.00;4.30;;;21.60;83.70;;;;;;5072048;28;20496;-64
2022/05/01 08:53:27;;;;;;;5.63;3.80;;;21.80;80.70;;;;;;5072689;28;20518;-63
2022/05/01 08:55:56;;;;;;;5.83;4.00;;;21.80;79.80;;;;;;5072554;28;20506;-64
2022/05/01 08:58:24;;;;;;;5.70;4.20;;;21.70;78.10;;;;;;5072242;28;20477;-64
2022/05/01 09:00:52;;;;;;;4.90;3.97;;;21.50;81.40;;;;;;5072317;28;20453;-64
2022/05/01 09:03:20;;;;;;;4.90;3.13;;;21.70;81.30;;;;;;5072190;28;20511;-64
2022/05/01 09:05:47;;;;;;;5.50;3.83;;;21.70;77.00;;;;;;5072658;28;20925;-63
2022/05/01 09:08:14;;;;;;;4.50;3.17;;;21.90;76.50;;;;;;5072541;28;20465;-64
2022/05/01 09:10:43;;;;;;;6.70;3.27;;;21.90;74.90;;;;;;5072445;28;20510;-65
2022/05/01 09:13:11;;;;;;;4.13;2.53;;;21.90;70.40;;;;;;5072406;28;20456;-64
2022/05/01 09:15:41;;;;;;;4.90;3.27;;;21.50;68.50;;;;;;5072072;28;20483;-64
2022/05/01 09:18:10;;;;;;;8.70;4.20;;;21.20;69.80;;;;;;5071960;28;20473;-64
2022/05/01 09:20:39;;;;;;;4.50;3.20;;;21.50;71.00;;;;;;5072198;28;20445;-65
2022/05/01 09:23:07;;;;;;;4.80;3.33;;;21.70;68.00;;;;;;5072111;28;20453;-63
2022/05/01 09:25:34;;;;;;;6.60;4.30;;;21.80;70.20;;;;;;5072158;28;20514;-64
2022/05/01 09:28:22;;;;;;;5.93;3.50;;;22.20;69.50;;;;;;5071936;28;20476;-63
2022/05/01 09:30:49;;;;;;;5.23;3.27;;;22.30;67.30;;;;;;5071915;28;20488;-63
2022/05/01 09:33:19;;;;;;;4.60;3.13;;;22.00;66.70;;;;;;5071854;28;20468;-64
2022/05/01 09:35:46;;;;;;;4.27;2.87;;;21.70;65.90;;;;;;5071991;28;20445;-64
2022/05/01 09:38:18;;;;;;;4.60;2.93;;;21.70;64.30;;;;;;5071755;28;20476;-65
2022/05/01 09:40:46;;;;;;;4.67;3.00;;;21.60;62.40;;;;;;5071964;28;20461;-64
2022/05/01 09:43:35;;;;;;;5.53;3.50;;;21.80;63.30;;;;;;5071838;28;20456;-64
2022/05/01 09:46:15;;;;;;;4.80;2.50;;;22.20;63.00;;;;;;5071943;28;20847;-64
2022/05/01 09:48:43;;;;;;;5.67;2.67;;;22.50;60.40;;;;;;5071377;28;20473;-64
2022/05/01 09:51:18;;;;;;;4.03;2.43;;;22.50;60.60;;;;;;5071070;28;20523;-64
2022/05/01 09:53:46;;;;;;;5.00;2.30;;;22.30;59.30;;;;;;5071308;28;20526;-64
2022/05/01 09:56:14;;;;;;;4.50;2.63;;;22.50;58.20;;;;;;5071591;28;20569;-64
2022/05/01 09:58:43;;;;;;;4.63;2.83;;;22.70;58.60;;;;;;5071078;28;20476;-63
2022/05/01 10:01:12;;;;;;;4.70;2.53;;;23.00;59.00;;;;;;5071324;28;20973;-63
2022/05/01 10:03:45;;;;;;;4.10;2.53;;;23.20;58.60;;;;;;5071483;28;20544;-63
2022/05/01 10:06:14;;;;;;;5.10;2.77;;;23.20;58.70;;;;;;5071338;28;20510;-63
2022/05/01 10:08:43;;;;;;;6.73;2.93;;;23.40;57.70;;;;;;5070841;28;20468;-63
2022/05/01 10:11:14;;;;;;;5.57;2.93;;;23.50;56.80;;;;;;5071065;28;20496;-63
2022/05/01 10:13:43;;;;;;;5.70;3.73;;;23.40;55.00;;;;;;5071252;28;20741;-64
2022/05/01 10:16:11;;;;;;;5.67;3.40;;;23.30;56.30;;;;;;5071051;28;20522;-64
2022/05/01 10:18:40;;;;;;;4.93;3.30;;;23.60;58.70;;;;;;5070954;28;20473;-64
2022/05/01 10:21:08;;;;;;;4.80;2.40;;;23.60;53.90;;;;;;5071246;28;20453;-64
2022/05/01 10:23:36;;;;;;;5.00;2.43;;;23.10;54.00;;;;;;5071159;28;20841;-65
2022/05/01 10:26:09;;;;;;;4.90;3.20;;;23.30;55.20;;;;;;5071022;28;20532;-63
2022/05/01 10:28:58;;;;;;;6.80;3.63;;;23.60;54.30;;;;;;5070746;28;20509;-63
2022/05/01 10:34:50;;;;;;;5.10;3.37;;;23.70;55.00;;;;;;5052541;28;20441;-64
2022/05/01 10:37:32;;;;;;;6.00;3.27;;;23.80;58.20;;;;;;5070783;28;20790;-64
2022/05/01 10:40:01;;;;;;;5.93;2.87;;;24.20;56.00;;;;;;5070657;28;20461;-62
2022/05/01 10:42:36;;;;;;;4.20;2.70;;;24.60;56.40;;;;;;5070712;28;20441;-65
2022/05/01 10:45:44;;;;;;;5.70;2.50;;;24.80;54.50;;;;;;5070468;28;21276;-64
2022/05/01 10:48:15;;;;;;;4.27;2.13;;;25.00;53.10;;;;;;5070467;28;20461;-64
2022/05/01 10:50:42;;;;;;;6.53;2.50;;;25.40;52.80;;;;;;5070092;28;20507;-64
2022/05/01 10:53:13;;;;;;;4.77;2.40;;;25.50;51.70;;;;;;5070235;28;20445;-64
2022/05/01 10:55:45;;;;;;;4.60;3.07;;;25.50;50.60;;;;;;5070271;28;20453;-63
2022/05/01 10:58:25;;;;;;;4.20;2.63;;;25.70;50.80;;;;;;5069801;28;20480;-64
2022/05/01 11:00:54;;;;;;;6.90;2.73;;;25.80;49.80;;;;;;5070405;28;20834;-64
2022/05/01 11:03:27;;;;;;;4.70;2.57;;;25.90;50.20;;;;;;5069628;28;20540;-66
2022/05/01 11:05:57;;;;;;;6.37;2.63;;;26.00;50.40;;;;;;5069997;28;20449;-64
2022/05/01 11:08:27;;;;;;;4.80;2.50;;;26.20;51.10;;;;;;5070024;28;20480;-64
2022/05/01 11:10:56;;;;;;;4.47;2.13;;;26.30;50.20;;;;;;5069892;28;20488;-65
2022/05/01 11:13:28;;;;;;;4.43;2.33;;;26.40;48.60;;;;;;5069947;28;20504;-63
2022/05/01 11:15:57;;;;;;;4.43;2.00;;;26.70;49.00;;;;;;5069820;28;20445;-64
2022/05/01 11:18:31;;;;;;;5.67;2.40;;;26.50;48.80;;;;;;5069733;28;20512;-64
2022/05/01 11:21:33;;;;;;;4.67;2.70;;;26.50;49.30;;;;;;5069967;28;20524;-64
2022/05/01 11:24:01;;;;;;;4.30;2.53;;;26.80;49.20;;;;;;5069810;28;20452;-64
2022/05/01 11:26:30;;;;;;;5.60;2.67;;;27.00;48.00;;;;;;5069609;28;20558;-64
2022/05/01 11:29:08;;;;;;;3.97;2.30;;;27.20;47.30;;;;;;5069754;28;20608;-64
2022/05/01 11:31:47;;;;;;;6.33;3.30;;;27.10;47.90;;;;;;5069591;28;20957;-64
2022/05/01 11:34:49;;;;;;;5.00;2.27;;;27.30;47.00;;;;;;5069863;28;20448;-64
2022/05/01 11:37:16;;;;;;;4.53;2.40;;;26.80;44.70;;;;;;5069422;28;20487;-64
2022/05/01 11:40:11;;;;;;;4.50;2.23;;;26.80;46.80;;;;;;5069635;28;20469;-65
2022/05/01 11:42:38;;;;;;;5.50;3.50;;;26.90;46.30;;;;;;5069754;28;20531;-64
2022/05/01 11:45:08;;;;;;;7.80;4.77;;;27.10;47.10;;;;;;5069389;28;20834;-65
2022/05/01 11:47:37;;;;;;;6.90;2.63;;;27.30;46.80;;;;;;5069236;28;20453;-64
2022/05/01 11:50:06;;;;;;;4.53;2.17;;;27.50;47.30;;;;;;5068848;28;20492;-64
2022/05/01 11:52:37;;;;;;;5.50;2.53;;;27.00;47.20;;;;;;5069429;28;20492;-64
2022/05/01 11:55:08;;;;;;;4.47;2.80;;;26.60;46.50;;;;;;5069404;28;20455;-64
2022/05/01 12:03:08;;;;;;;4.37;2.77;;;25.90;46.50;;;;;;5069454;28;20474;-64
2022/05/01 12:05:44;;;;;;;4.43;2.70;;;25.80;48.00;;;;;;5069464;28;20456;-64
2022/05/01 12:08:12;;;;;;;5.80;3.17;;;25.80;48.50;;;;;;5068986;28;20571;-65
2022/05/01 12:10:42;;;;;;;5.57;2.57;;;25.80;48.80;;;;;;5069158;28;20859;-64
2022/05/01 12:13:20;;;;;;;5.83;2.73;;;25.80;48.40;;;;;;5069186;28;20489;-65
2022/05/01 12:15:48;;;;;;;4.27;2.33;;;25.80;48.60;;;;;;5071478;28;20452;-63
2022/05/01 12:18:17;;;;;;;5.00;3.20;;;25.80;48.20;;;;;;5073321;28;20976;-64
2022/05/01 12:20:44;;;;;;;5.10;3.00;;;25.40;48.40;;;;;;5073399;28;20499;-69
2022/05/01 12:23:16;;;;;;;5.43;2.80;;;25.20;49.30;;;;;;5073037;28;20452;-74
2022/05/01 12:25:46;;;;;;;4.47;2.53;;;25.20;49.80;;;;;;5073166;28;20540;-71
2022/05/01 12:28:15;;;;;;;4.60;3.30;;;25.50;49.00;;;;;;5073239;28;20792;-72
2022/05/01 12:30:43;;;;;;;4.13;2.43;;;25.30;48.60;;;;;;5073074;28;20488;-74
2022/05/01 12:33:22;;;;;;;4.10;2.40;;;25.40;49.50;;;;;;5072700;28;20448;-73
2022/05/01 12:35:58;;;;;;;4.67;2.40;;;25.50;49.70;;;;;;5072957;28;20531;-71
2022/05/01 12:38:27;;;;;;;5.07;2.70;;;25.40;48.40;;;;;;5072827;28;20484;-71
2022/05/01 12:43:51;;;;;;;4.93;2.77;;;24.80;50.00;;;;;;5072699;28;20487;-70
2022/05/01 12:46:23;;;;;;;4.50;2.50;;;24.60;50.70;;;;;;5072779;28;20453;-65
2022/05/01 12:48:51;;;;;;;5.13;2.40;;;24.40;49.50;;;;;;5072708;28;20473;-62
2022/05/01 12:51:19;;;;;;;4.50;1.90;;;24.50;49.70;;;;;;5071988;28;20840;-63
2022/05/01 12:53:46;;;;;;;4.60;2.70;;;24.70;49.60;;;;;;5072781;28;20460;-63
2022/05/01 12:56:24;;;;;;;6.13;2.73;;;25.00;49.10;;;;;;5072532;28;20479;-64
2022/05/01 12:58:52;;;;;;;4.40;2.30;;;25.00;49.80;;;;;;5072549;28;20883;-73
2022/05/01 13:01:25;;;;;;;8.47;2.87;;;25.30;49.40;;;;;;5081808;28;20467;-70
2022/05/01 13:03:54;;;;;;;4.67;1.80;;;25.80;49.20;;;;;;5091555;28;20452;-63
2022/05/01 13:06:22;;;;;;;7.90;2.60;;;26.00;47.90;;;;;;5091184;28;20973;-63
2022/05/01 13:09:05;;;;;;;4.87;2.20;;;26.00;47.50;;;;;;5090871;28;20566;-64
2022/05/01 13:11:34;;;;;;;5.67;2.60;;;26.00;48.20;;;;;;5090739;28;20487;-63
2022/05/01 13:14:03;;;;;;;5.13;2.60;;;25.90;48.00;;;;;;5091017;28;20451;-65
2022/05/01 13:16:42;;;;;;;5.20;2.70;;;25.90;47.70;;;;;;5090399;28;20952;-64
2022/05/01 13:19:12;;;;;;;4.80;2.03;;;25.90;48.10;;;;;;5091564;28;20808;-62
2022/05/01 13:21:41;;;;;;;4.60;2.73;;;25.80;47.70;;;;;;5092305;28;20795;-64